sensor_id;sensor_type;location;lat;lon;timestamp;pressure;altitude;pressure_sealevel;temperature;humidity
64336;BME280;50672;53.362;-6.240;2023-03-08T00:01:19;99741.19;;;4.24;55.09
64336;BME280;50672;53.362;-6.240;2023-03-08T00:03:55;99739.03;;;4.27;55.12
64336;BME280;50672;53.362;-6.240;2023-03-08T00:06:23;99738.03;;;4.28;55.33
64336;BME280;50672;53.362;-6.240;2023-03-08T00:08:59;99730.78;;;4.29;55.16
64336;BME280;50672;53.362;-6.240;2023-03-08T00:11:27;99726.59;;;4.35;55.09
64336;BME280;50672;53.362;-6.240;2023-03-08T00:13:54;99720.72;;;4.39;55.17
64336;BME280;50672;53.362;-6.240;2023-03-08T00:16:21;99716.53;;;4.45;55.26
64336;BME280;50672;53.362;-6.240;2023-03-08T00:18:49;99726.16;;;4.48;55.23
64336;BME280;50672;53.362;-6.240;2023-03-08T00:21:17;99709.00;;;4.49;55.33
64336;BME280;50672;53.362;-6.240;2023-03-08T00:23:44;99709.34;;;4.54;55.28
64336;BME280;50672;53.362;-6.240;2023-03-08T00:26:11;99696.56;;;4.56;55.34
64336;BME280;50672;53.362;-6.240;2023-03-08T00:28:39;99699.06;;;4.57;55.22
64336;BME280;50672;53.362;-6.240;2023-03-08T00:31:11;99697.72;;;4.53;55.36
64336;BME280;50672;53.362;-6.240;2023-03-08T00:33:38;99692.00;;;4.48;55.27
64336;BME280;50672;53.362;-6.240;2023-03-08T00:36:17;99693.16;;;4.45;55.17
64336;BME280;50672;53.362;-6.240;2023-03-08T00:38:44;99691.28;;;4.46;55.17
64336;BME280;50672;53.362;-6.240;2023-03-08T00:41:11;99682.72;;;4.42;55.04
64336;BME280;50672;53.362;-6.240;2023-03-08T00:43:38;99681.00;;;4.41;55.03
64336;BME280;50672;53.362;-6.240;2023-03-08T00:46:08;99677.31;;;4.42;54.94
64336;BME280;50672;53.362;-6.240;2023-03-08T00:48:35;99667.72;;;4.40;54.79
64336;BME280;50672;53.362;-6.240;2023-03-08T00:51:02;99658.47;;;4.42;54.78
64336;BME280;50672;53.362;-6.240;2023-03-08T00:53:29;99660.28;;;4.42;54.77
64336;BME280;50672;53.362;-6.240;2023-03-08T00:55:57;99655.59;;;4.44;54.66
64336;BME280;50672;53.362;-6.240;2023-03-08T00:58:27;99654.25;;;4.48;54.60
64336;BME280;50672;53.362;-6.240;2023-03-08T01:00:54;99641.25;;;4.43;54.63
64336;BME280;50672;53.362;-6.240;2023-03-08T01:03:22;99643.13;;;4.43;54.58
64336;BME280;50672;53.362;-6.240;2023-03-08T01:05:51;99637.72;;;4.43;54.47
64336;BME280;50672;53.362;-6.240;2023-03-08T01:08:19;99630.81;;;4.40;54.49
64336;BME280;50672;53.362;-6.240;2023-03-08T01:10:48;99625.59;;;4.39;54.42
64336;BME280;50672;53.362;-6.240;2023-03-08T01:13:15;99614.81;;;4.39;54.47
64336;BME280;50672;53.362;-6.240;2023-03-08T01:15:42;99614.81;;;4.39;54.34
64336;BME280;50672;53.362;-6.240;2023-03-08T01:18:09;99611.97;;;4.40;54.40
64336;BME280;50672;53.362;-6.240;2023-03-08T01:20:35;99601.19;;;4.40;54.34
64336;BME280;50672;53.362;-6.240;2023-03-08T01:23:02;99601.34;;;4.39;54.27
64336;BME280;50672;53.362;-6.240;2023-03-08T01:25:29;99602.00;;;4.41;54.32
64336;BME280;50672;53.362;-6.240;2023-03-08T01:27:56;99596.50;;;4.42;54.39
64336;BME280;50672;53.362;-6.240;2023-03-08T01:30:23;99587.91;;;4.47;54.36
64336;BME280;50672;53.362;-6.240;2023-03-08T01:32:50;99589.44;;;4.50;54.46
64336;BME280;50672;53.362;-6.240;2023-03-08T01:35:17;99586.03;;;4.48;54.43
64336;BME280;50672;53.362;-6.240;2023-03-08T01:37:44;99581.69;;;4.47;54.55
64336;BME280;50672;53.362;-6.240;2023-03-08T01:40:14;99570.22;;;4.44;54.67
64336;BME280;50672;53.362;-6.240;2023-03-08T01:42:41;99575.44;;;4.46;54.71
64336;BME280;50672;53.362;-6.240;2023-03-08T01:48:13;99558.59;;;4.44;54.80
64336;BME280;50672;53.362;-6.240;2023-03-08T01:50:43;99566.84;;;4.42;54.86
64336;BME280;50672;53.362;-6.240;2023-03-08T01:53:11;99555.75;;;4.45;54.92
64336;BME280;50672;53.362;-6.240;2023-03-08T01:55:39;99554.75;;;4.47;54.88
64336;BME280;50672;53.362;-6.240;2023-03-08T01:58:06;99551.69;;;4.50;54.87
64336;BME280;50672;53.362;-6.240;2023-03-08T02:00:32;99547.66;;;4.54;54.83
64336;BME280;50672;53.362;-6.240;2023-03-08T02:03:07;99546.50;;;4.56;54.67
64336;BME280;50672;53.362;-6.240;2023-03-08T02:05:37;99537.22;;;4.59;54.68
64336;BME280;50672;53.362;-6.240;2023-03-08T02:08:06;99532.50;;;4.61;54.49
64336;BME280;50672;53.362;-6.240;2023-03-08T02:10:33;99527.97;;;4.61;54.48
64336;BME280;50672;53.362;-6.240;2023-03-08T02:13:03;99522.91;;;4.58;54.27
64336;BME280;50672;53.362;-6.240;2023-03-08T02:15:32;99517.34;;;4.60;54.17
64336;BME280;50672;53.362;-6.240;2023-03-08T02:17:58;99514.81;;;4.58;53.97
64336;BME280;50672;53.362;-6.240;2023-03-08T02:20:29;99504.22;;;4.57;53.86
64336;BME280;50672;53.362;-6.240;2023-03-08T02:25:37;99504.38;;;4.55;53.85
64336;BME280;50672;53.362;-6.240;2023-03-08T02:28:05;99496.28;;;4.55;53.75
64336;BME280;50672;53.362;-6.240;2023-03-08T02:30:35;99493.44;;;4.57;53.94
64336;BME280;50672;53.362;-6.240;2023-03-08T02:33:02;99488.38;;;4.54;53.90
64336;BME280;50672;53.362;-6.240;2023-03-08T02:35:29;99483.81;;;4.54;53.83
64336;BME280;50672;53.362;-6.240;2023-03-08T02:37:56;99482.31;;;4.52;54.09
64336;BME280;50672;53.362;-6.240;2023-03-08T02:40:23;99469.16;;;4.49;54.09
64336;BME280;50672;53.362;-6.240;2023-03-08T02:42:50;99472.88;;;4.48;54.12
64336;BME280;50672;53.362;-6.240;2023-03-08T02:45:19;99464.63;;;4.49;54.16
64336;BME280;50672;53.362;-6.240;2023-03-08T02:47:45;99459.22;;;4.49;54.19
64336;BME280;50672;53.362;-6.240;2023-03-08T02:50:12;99454.19;;;4.54;54.19
64336;BME280;50672;53.362;-6.240;2023-03-08T02:52:39;99457.06;;;4.53;54.12
64336;BME280;50672;53.362;-6.240;2023-03-08T02:55:06;99454.53;;;4.51;54.13
64336;BME280;50672;53.362;-6.240;2023-03-08T02:57:33;99443.91;;;4.50;54.13
64336;BME280;50672;53.362;-6.240;2023-03-08T03:00:00;99439.88;;;4.54;54.10
64336;BME280;50672;53.362;-6.240;2023-03-08T03:02:27;99436.16;;;4.55;54.04
64336;BME280;50672;53.362;-6.240;2023-03-08T03:04:54;99424.38;;;4.56;53.83
64336;BME280;50672;53.362;-6.240;2023-03-08T03:07:20;99430.44;;;4.58;53.78
64336;BME280;50672;53.362;-6.240;2023-03-08T03:09:47;99427.75;;;4.58;53.69
64336;BME280;50672;53.362;-6.240;2023-03-08T03:12:14;99425.06;;;4.58;53.57
64336;BME280;50672;53.362;-6.240;2023-03-08T03:14:41;99424.03;;;4.59;53.63
64336;BME280;50672;53.362;-6.240;2023-03-08T03:17:07;99421.00;;;4.62;53.64
64336;BME280;50672;53.362;-6.240;2023-03-08T03:19:36;99416.44;;;4.62;53.50
64336;BME280;50672;53.362;-6.240;2023-03-08T03:22:03;99407.00;;;4.67;53.67
64336;BME280;50672;53.362;-6.240;2023-03-08T03:24:29;99412.06;;;4.70;53.58
64336;BME280;50672;53.362;-6.240;2023-03-08T03:26:56;99406.31;;;4.73;53.51
64336;BME280;50672;53.362;-6.240;2023-03-08T03:29:23;99401.09;;;4.71;53.47
64336;BME280;50672;53.362;-6.240;2023-03-08T03:31:50;99398.59;;;4.70;53.45
64336;BME280;50672;53.362;-6.240;2023-03-08T03:34:17;99395.06;;;4.69;53.54
64336;BME280;50672;53.362;-6.240;2023-03-08T03:36:44;99392.53;;;4.68;53.51
64336;BME280;50672;53.362;-6.240;2023-03-08T03:39:10;99394.38;;;4.67;53.24
64336;BME280;50672;53.362;-6.240;2023-03-08T03:41:37;99385.47;;;4.67;53.07
64336;BME280;50672;53.362;-6.240;2023-03-08T03:44:04;99384.94;;;4.63;53.01
64336;BME280;50672;53.362;-6.240;2023-03-08T03:46:31;99385.13;;;4.61;53.00
64336;BME280;50672;53.362;-6.240;2023-03-08T03:48:58;99375.50;;;4.59;52.97
64336;BME280;50672;53.362;-6.240;2023-03-08T03:51:25;99369.47;;;4.57;52.89
64336;BME280;50672;53.362;-6.240;2023-03-08T03:53:52;99371.16;;;4.58;52.82
64336;BME280;50672;53.362;-6.240;2023-03-08T03:56:24;99368.47;;;4.50;52.81
64336;BME280;50672;53.362;-6.240;2023-03-08T03:58:51;99367.97;;;4.46;52.92
64336;BME280;50672;53.362;-6.240;2023-03-08T04:01:24;99359.41;;;4.42;52.72
64336;BME280;50672;53.362;-6.240;2023-03-08T04:03:52;99362.09;;;4.42;52.67
64336;BME280;50672;53.362;-6.240;2023-03-08T04:06:21;99360.56;;;4.40;52.66
64336;BME280;50672;53.362;-6.240;2023-03-08T04:08:51;99359.88;;;4.38;52.67
64336;BME280;50672;53.362;-6.240;2023-03-08T04:11:21;99362.41;;;4.39;52.64
64336;BME280;50672;53.362;-6.240;2023-03-08T04:13:49;99352.97;;;4.43;52.65
64336;BME280;50672;53.362;-6.240;2023-03-08T04:16:19;99353.16;;;4.42;52.56
64336;BME280;50672;53.362;-6.240;2023-03-08T04:18:46;99346.75;;;4.43;52.52
64336;BME280;50672;53.362;-6.240;2023-03-08T04:21:13;99352.66;;;4.47;52.49
64336;BME280;50672;53.362;-6.240;2023-03-08T04:23:40;99340.38;;;4.44;52.46
64336;BME280;50672;53.362;-6.240;2023-03-08T04:26:07;99339.31;;;4.45;52.31
64336;BME280;50672;53.362;-6.240;2023-03-08T04:28:33;99336.16;;;4.41;52.37
64336;BME280;50672;53.362;-6.240;2023-03-08T04:31:19;99326.72;;;4.37;52.48
64336;BME280;50672;53.362;-6.240;2023-03-08T04:33:47;99342.38;;;4.34;52.33
64336;BME280;50672;53.362;-6.240;2023-03-08T04:36:14;99330.09;;;4.31;52.54
64336;BME280;50672;53.362;-6.240;2023-03-08T04:38:42;99326.38;;;4.32;52.56
64336;BME280;50672;53.362;-6.240;2023-03-08T04:41:10;99324.03;;;4.29;52.49
64336;BME280;50672;53.362;-6.240;2023-03-08T04:43:43;99319.19;;;4.24;52.32
64336;BME280;50672;53.362;-6.240;2023-03-08T04:46:12;99315.97;;;4.21;52.31
64336;BME280;50672;53.362;-6.240;2023-03-08T04:48:39;99317.66;;;4.22;52.42
64336;BME280;50672;53.362;-6.240;2023-03-08T04:51:07;99319.66;;;4.20;52.47
64336;BME280;50672;53.362;-6.240;2023-03-08T04:53:35;99312.63;;;4.19;52.41
64336;BME280;50672;53.362;-6.240;2023-03-08T04:56:02;99315.13;;;4.20;52.20
64336;BME280;50672;53.362;-6.240;2023-03-08T04:58:28;99322.19;;;4.21;52.07
64336;BME280;50672;53.362;-6.240;2023-03-08T05:00:56;99315.63;;;4.16;51.97
64336;BME280;50672;53.362;-6.240;2023-03-08T05:03:22;99309.94;;;4.19;51.96
64336;BME280;50672;53.362;-6.240;2023-03-08T05:05:52;99312.63;;;4.19;51.77
64336;BME280;50672;53.362;-6.240;2023-03-08T05:08:19;99308.22;;;4.18;51.64
64336;BME280;50672;53.362;-6.240;2023-03-08T05:10:47;99313.63;;;4.18;51.47
64336;BME280;50672;53.362;-6.240;2023-03-08T05:13:14;99308.22;;;4.18;51.45
64336;BME280;50672;53.362;-6.240;2023-03-08T05:15:41;99304.84;;;4.16;51.22
64336;BME280;50672;53.362;-6.240;2023-03-08T05:18:08;99297.63;;;4.16;51.05
64336;BME280;50672;53.362;-6.240;2023-03-08T05:20:35;99289.03;;;4.13;51.02
64336;BME280;50672;53.362;-6.240;2023-03-08T05:23:02;99285.53;;;4.12;50.90
64336;BME280;50672;53.362;-6.240;2023-03-08T05:25:29;99273.88;;;4.11;50.77
64336;BME280;50672;53.362;-6.240;2023-03-08T05:27:56;99275.56;;;4.13;50.68
64336;BME280;50672;53.362;-6.240;2023-03-08T05:30:23;99280.13;;;4.12;50.51
64336;BME280;50672;53.362;-6.240;2023-03-08T05:32:50;99277.78;;;4.17;50.60
64336;BME280;50672;53.362;-6.240;2023-03-08T05:35:17;99277.44;;;4.20;50.42
64336;BME280;50672;53.362;-6.240;2023-03-08T05:37:44;99278.25;;;4.21;50.57
64336;BME280;50672;53.362;-6.240;2023-03-08T05:40:11;99270.69;;;4.24;50.88
64336;BME280;50672;53.362;-6.240;2023-03-08T05:42:38;99269.50;;;4.27;51.19
64336;BME280;50672;53.362;-6.240;2023-03-08T05:45:05;99266.47;;;4.30;51.43
64336;BME280;50672;53.362;-6.240;2023-03-08T05:47:32;99271.88;;;4.30;51.88
64336;BME280;50672;53.362;-6.240;2023-03-08T05:49:59;99263.59;;;4.32;52.26
64336;BME280;50672;53.362;-6.240;2023-03-08T05:52:26;99262.44;;;4.34;52.50
64336;BME280;50672;53.362;-6.240;2023-03-08T05:54:54;99266.78;;;4.35;52.90
64336;BME280;50672;53.362;-6.240;2023-03-08T05:57:21;99258.56;;;4.37;53.13
64336;BME280;50672;53.362;-6.240;2023-03-08T05:59:48;99252.13;;;4.38;53.46
64336;BME280;50672;53.362;-6.240;2023-03-08T06:02:14;99250.94;;;4.40;53.60
64336;BME280;50672;53.362;-6.240;2023-03-08T06:04:41;99250.13;;;4.40;53.89
64336;BME280;50672;53.362;-6.240;2023-03-08T06:07:08;99255.50;;;4.40;54.21
64336;BME280;50672;53.362;-6.240;2023-03-08T06:09:35;99251.13;;;4.39;54.34
64336;BME280;50672;53.362;-6.240;2023-03-08T06:12:01;99250.94;;;4.40;54.44
64336;BME280;50672;53.362;-6.240;2023-03-08T06:14:28;99254.66;;;4.39;54.73
64336;BME280;50672;53.362;-6.240;2023-03-08T06:16:55;99247.41;;;4.40;54.84
64336;BME280;50672;53.362;-6.240;2023-03-08T06:19:22;99248.44;;;4.39;54.78
64336;BME280;50672;53.362;-6.240;2023-03-08T06:21:49;99247.59;;;4.38;54.69
64336;BME280;50672;53.362;-6.240;2023-03-08T06:24:16;99239.34;;;4.40;54.60
64336;BME280;50672;53.362;-6.240;2023-03-08T06:26:42;99240.16;;;4.40;54.63
64336;BME280;50672;53.362;-6.240;2023-03-08T06:29:09;99232.09;;;4.40;54.36
64336;BME280;50672;53.362;-6.240;2023-03-08T06:31:36;99233.09;;;4.39;54.34
64336;BME280;50672;53.362;-6.240;2023-03-08T06:34:02;99240.34;;;4.39;54.00
64336;BME280;50672;53.362;-6.240;2023-03-08T06:36:29;99245.22;;;4.35;53.77
64336;BME280;50672;53.362;-6.240;2023-03-08T06:38:56;99239.19;;;4.33;53.73
64336;BME280;50672;53.362;-6.240;2023-03-08T06:41:25;99244.56;;;4.33;53.72
64336;BME280;50672;53.362;-6.240;2023-03-08T06:43:51;99248.09;;;4.34;53.60
64336;BME280;50672;53.362;-6.240;2023-03-08T06:46:18;99246.44;;;4.33;53.70
64336;BME280;50672;53.362;-6.240;2023-03-08T06:48:48;99243.59;;;4.26;53.91
64336;BME280;50672;53.362;-6.240;2023-03-08T06:51:16;99234.00;;;4.23;54.23
64336;BME280;50672;53.362;-6.240;2023-03-08T06:53:43;99239.88;;;4.27;54.27
64336;BME280;50672;53.362;-6.240;2023-03-08T06:56:12;99235.34;;;4.27;54.64
64336;BME280;50672;53.362;-6.240;2023-03-08T06:58:40;99233.81;;;4.25;54.79
64336;BME280;50672;53.362;-6.240;2023-03-08T07:01:07;99228.97;;;4.20;54.73
64336;BME280;50672;53.362;-6.240;2023-03-08T07:03:35;99234.34;;;4.20;54.77
64336;BME280;50672;53.362;-6.240;2023-03-08T07:06:08;99233.47;;;4.20;54.64
64336;BME280;50672;53.362;-6.240;2023-03-08T07:08:36;99235.34;;;4.19;54.73
64336;BME280;50672;53.362;-6.240;2023-03-08T07:11:05;99239.22;;;4.17;54.84
64336;BME280;50672;53.362;-6.240;2023-03-08T07:13:32;99239.56;;;4.14;54.93
64336;BME280;50672;53.362;-6.240;2023-03-08T07:16:05;99232.50;;;4.13;54.99
64336;BME280;50672;53.362;-6.240;2023-03-08T07:18:32;99236.88;;;4.14;54.98
64336;BME280;50672;53.362;-6.240;2023-03-08T07:20:59;99231.31;;;4.15;55.19
64336;BME280;50672;53.362;-6.240;2023-03-08T07:23:26;99237.53;;;4.16;55.08
64336;BME280;50672;53.362;-6.240;2023-03-08T07:25:53;99243.78;;;4.16;54.98
64336;BME280;50672;53.362;-6.240;2023-03-08T07:28:19;99243.44;;;4.19;55.00
64336;BME280;50672;53.362;-6.240;2023-03-08T07:30:47;99247.81;;;4.20;55.03
64336;BME280;50672;53.362;-6.240;2023-03-08T07:33:16;99253.38;;;4.19;55.07
64336;BME280;50672;53.362;-6.240;2023-03-08T07:35:43;99243.78;;;4.16;55.11
64336;BME280;50672;53.362;-6.240;2023-03-08T07:38:13;99245.13;;;4.12;55.00
64336;BME280;50672;53.362;-6.240;2023-03-08T07:40:41;99244.78;;;4.07;55.04
64336;BME280;50672;53.362;-6.240;2023-03-08T07:43:08;99250.34;;;4.05;55.21
64336;BME280;50672;53.362;-6.240;2023-03-08T07:45:38;99251.53;;;4.03;55.16
64336;BME280;50672;53.362;-6.240;2023-03-08T07:48:05;99249.00;;;4.01;55.12
64336;BME280;50672;53.362;-6.240;2023-03-08T07:50:32;99256.44;;;3.99;55.19
64336;BME280;50672;53.362;-6.240;2023-03-08T07:52:59;99263.81;;;3.97;54.88
64336;BME280;50672;53.362;-6.240;2023-03-08T07:55:26;99257.44;;;3.98;54.99
64336;BME280;50672;53.362;-6.240;2023-03-08T07:57:53;99260.47;;;4.03;54.80
64336;BME280;50672;53.362;-6.240;2023-03-08T08:00:20;99264.47;;;4.07;54.84
64336;BME280;50672;53.362;-6.240;2023-03-08T08:02:47;99263.97;;;4.12;54.72
64336;BME280;50672;53.362;-6.240;2023-03-08T08:05:14;99264.63;;;4.22;54.61
64336;BME280;50672;53.362;-6.240;2023-03-08T08:07:41;99269.81;;;4.32;54.55
64336;BME280;50672;53.362;-6.240;2023-03-08T08:10:08;99266.94;;;4.42;54.33
64336;BME280;50672;53.362;-6.240;2023-03-08T08:12:35;99269.59;;;4.50;54.30
64336;BME280;50672;53.362;-6.240;2023-03-08T08:15:02;99261.84;;;4.55;54.08
64336;BME280;50672;53.362;-6.240;2023-03-08T08:17:29;99268.41;;;4.61;53.89
64336;BME280;50672;53.362;-6.240;2023-03-08T08:19:56;99259.44;;;4.69;53.79
64336;BME280;50672;53.362;-6.240;2023-03-08T08:22:22;99269.53;;;4.75;53.50
64336;BME280;50672;53.362;-6.240;2023-03-08T08:24:50;99265.13;;;4.82;53.18
64336;BME280;50672;53.362;-6.240;2023-03-08T08:27:16;99254.84;;;4.86;52.80
64336;BME280;50672;53.362;-6.240;2023-03-08T08:29:43;99260.34;;;4.92;52.41
64336;BME280;50672;53.362;-6.240;2023-03-08T08:32:15;99259.84;;;4.97;52.05
64336;BME280;50672;53.362;-6.240;2023-03-08T08:34:42;99257.28;;;5.04;51.81
64336;BME280;50672;53.362;-6.240;2023-03-08T08:37:08;99246.59;;;5.10;51.47
64336;BME280;50672;53.362;-6.240;2023-03-08T08:39:35;99248.25;;;5.20;51.12
64336;BME280;50672;53.362;-6.240;2023-03-08T08:42:02;99247.47;;;5.34;50.84
64336;BME280;50672;53.362;-6.240;2023-03-08T08:44:49;99250.44;;;5.47;50.57
64336;BME280;50672;53.362;-6.240;2023-03-08T08:47:56;99248.13;;;5.59;50.15
64336;BME280;50672;53.362;-6.240;2023-03-08T08:50:24;99243.88;;;5.65;49.89
64336;BME280;50672;53.362;-6.240;2023-03-08T08:52:53;99238.41;;;5.73;49.49
64336;BME280;50672;53.362;-6.240;2023-03-08T08:55:23;99237.69;;;5.79;49.06
64336;BME280;50672;53.362;-6.240;2023-03-08T08:57:52;99240.50;;;5.86;48.80
64336;BME280;50672;53.362;-6.240;2023-03-08T09:00:25;99245.06;;;5.86;48.57
64336;BME280;50672;53.362;-6.240;2023-03-08T09:02:52;99243.84;;;5.88;48.31
64336;BME280;50672;53.362;-6.240;2023-03-08T09:05:20;99239.94;;;5.91;48.08
64336;BME280;50672;53.362;-6.240;2023-03-08T09:07:55;99235.56;;;5.90;47.54
64336;BME280;50672;53.362;-6.240;2023-03-08T09:10:27;99228.66;;;5.87;47.22
64336;BME280;50672;53.362;-6.240;2023-03-08T09:12:56;99230.91;;;5.84;46.82
64336;BME280;50672;53.362;-6.240;2023-03-08T09:15:31;99221.59;;;5.86;46.24
64336;BME280;50672;53.362;-6.240;2023-03-08T09:17:59;99223.06;;;5.89;45.97
64336;BME280;50672;53.362;-6.240;2023-03-08T09:20:30;99219.47;;;5.96;45.87
64336;BME280;50672;53.362;-6.240;2023-03-08T09:23:04;99217.09;;;6.02;45.67
64336;BME280;50672;53.362;-6.240;2023-03-08T09:25:34;99217.84;;;6.10;45.58
64336;BME280;50672;53.362;-6.240;2023-03-08T09:28:09;99207.25;;;6.24;45.28
64336;BME280;50672;53.362;-6.240;2023-03-08T09:30:40;99221.69;;;6.31;44.96
64336;BME280;50672;53.362;-6.240;2023-03-08T09:33:13;99215.25;;;6.47;44.58
64336;BME280;50672;53.362;-6.240;2023-03-08T09:35:57;99212.94;;;6.59;44.16
64336;BME280;50672;53.362;-6.240;2023-03-08T09:38:29;99213.19;;;6.64;43.77
64336;BME280;50672;53.362;-6.240;2023-03-08T09:41:27;99212.66;;;6.69;43.11
64336;BME280;50672;53.362;-6.240;2023-03-08T09:46:51;99199.47;;;6.65;42.62
64336;BME280;50672;53.362;-6.240;2023-03-08T09:49:30;99192.59;;;6.63;42.50
64336;BME280;50672;53.362;-6.240;2023-03-08T09:54:50;99198.13;;;6.55;42.13
64336;BME280;50672;53.362;-6.240;2023-03-08T09:57:25;99194.09;;;6.50;41.97
64336;BME280;50672;53.362;-6.240;2023-03-08T10:00:01;99195.75;;;6.52;41.95
64336;BME280;50672;53.362;-6.240;2023-03-08T10:05:42;99196.13;;;6.63;42.05
64336;BME280;50672;53.362;-6.240;2023-03-08T10:11:04;99200.19;;;6.89;42.09
64336;BME280;50672;53.362;-6.240;2023-03-08T10:13:48;99200.97;;;7.05;42.36
64336;BME280;50672;53.362;-6.240;2023-03-08T10:16:30;99202.75;;;7.12;42.25
64336;BME280;50672;53.362;-6.240;2023-03-08T10:21:49;99198.63;;;7.16;41.77
64336;BME280;50672;53.362;-6.240;2023-03-08T10:27:16;99196.13;;;7.15;41.50
64336;BME280;50672;53.362;-6.240;2023-03-08T10:29:50;99199.03;;;7.13;41.19
64336;BME280;50672;53.362;-6.240;2023-03-08T10:32:20;99208.78;;;7.14;41.06
64336;BME280;50672;53.362;-6.240;2023-03-08T10:34:52;99200.31;;;7.17;40.99
64336;BME280;50672;53.362;-6.240;2023-03-08T10:37:32;99207.91;;;7.29;41.02
64336;BME280;50672;53.362;-6.240;2023-03-08T10:40:04;99206.38;;;7.41;40.88
64336;BME280;50672;53.362;-6.240;2023-03-08T10:42:35;99210.69;;;7.57;40.92
64336;BME280;50672;53.362;-6.240;2023-03-08T10:45:16;99205.72;;;7.61;41.05
64336;BME280;50672;53.362;-6.240;2023-03-08T10:48:16;99207.53;;;7.53;41.03
64336;BME280;50672;53.362;-6.240;2023-03-08T10:51:12;99209.59;;;7.51;41.20
64336;BME280;50672;53.362;-6.240;2023-03-08T10:54:00;99210.88;;;7.56;41.41
64336;BME280;50672;53.362;-6.240;2023-03-08T10:56:50;99207.84;;;7.65;41.51
64336;BME280;50672;53.362;-6.240;2023-03-08T10:59:22;99214.09;;;7.66;41.79
64336;BME280;50672;53.362;-6.240;2023-03-08T11:02:20;99207.25;;;7.70;41.92
64336;BME280;50672;53.362;-6.240;2023-03-08T11:04:54;99218.41;;;7.82;42.30
64336;BME280;50672;53.362;-6.240;2023-03-08T11:07:27;99219.75;;;7.93;42.55
64336;BME280;50672;53.362;-6.240;2023-03-08T11:10:15;99220.84;;;7.98;42.82
64336;BME280;50672;53.362;-6.240;2023-03-08T11:12:44;99212.94;;;8.03;42.86
64336;BME280;50672;53.362;-6.240;2023-03-08T11:15:15;99205.72;;;8.11;43.11
64336;BME280;50672;53.362;-6.240;2023-03-08T11:18:03;99207.16;;;8.13;43.22
64336;BME280;50672;53.362;-6.240;2023-03-08T11:20:50;99204.25;;;8.08;43.01
64336;BME280;50672;53.362;-6.240;2023-03-08T11:23:26;99204.59;;;8.05;43.11
64336;BME280;50672;53.362;-6.240;2023-03-08T11:36:59;99188.91;;;8.29;43.13
64336;BME280;50672;53.362;-6.240;2023-03-08T11:39:49;99182.97;;;8.40;42.94
64336;BME280;50672;53.362;-6.240;2023-03-08T11:45:17;99197.09;;;8.64;42.71
64336;BME280;50672;53.362;-6.240;2023-03-08T11:48:12;99184.59;;;8.76;42.66
64336;BME280;50672;53.362;-6.240;2023-03-08T11:50:50;99185.09;;;8.93;42.59
64336;BME280;50672;53.362;-6.240;2023-03-08T11:53:38;99183.28;;;9.07;42.23
64336;BME280;50672;53.362;-6.240;2023-03-08T11:56:16;99183.50;;;9.19;41.94
64336;BME280;50672;53.362;-6.240;2023-03-08T11:59:02;99188.72;;;9.20;41.51
64336;BME280;50672;53.362;-6.240;2023-03-08T12:01:45;99187.50;;;9.30;41.20
64336;BME280;50672;53.362;-6.240;2023-03-08T12:04:19;99182.72;;;9.52;40.84
64336;BME280;50672;53.362;-6.240;2023-03-08T12:06:51;99179.19;;;9.65;40.88
64336;BME280;50672;53.362;-6.240;2023-03-08T12:12:28;99184.59;;;10.05;40.25
64336;BME280;50672;53.362;-6.240;2023-03-08T12:15:23;99176.84;;;10.08;39.88
64336;BME280;50672;53.362;-6.240;2023-03-08T12:18:14;99179.16;;;9.91;39.61
64336;BME280;50672;53.362;-6.240;2023-03-08T12:27:11;99186.69;;;9.69;39.18
64336;BME280;50672;53.362;-6.240;2023-03-08T12:32:21;99169.75;;;9.81;38.76
64336;BME280;50672;53.362;-6.240;2023-03-08T12:34:59;99160.56;;;9.82;38.72
64336;BME280;50672;53.362;-6.240;2023-03-08T12:37:29;99159.28;;;10.11;38.32
64336;BME280;50672;53.362;-6.240;2023-03-08T12:42:37;99155.25;;;10.47;37.85
64336;BME280;50672;53.362;-6.240;2023-03-08T12:45:24;99155.81;;;10.63;37.59
64336;BME280;50672;53.362;-6.240;2023-03-08T12:50:44;99154.69;;;10.77;36.97
64336;BME280;50672;53.362;-6.240;2023-03-08T12:53:23;99152.41;;;10.81;36.66
64336;BME280;50672;53.362;-6.240;2023-03-08T12:58:52;99153.97;;;11.34;36.57
64336;BME280;50672;53.362;-6.240;2023-03-08T13:03:56;99150.94;;;12.24;35.98
64336;BME280;50672;53.362;-6.240;2023-03-08T13:08:58;99159.81;;;12.38;34.89
64336;BME280;50672;53.362;-6.240;2023-03-08T13:11:36;99155.09;;;12.45;34.04
64336;BME280;50672;53.362;-6.240;2023-03-08T13:14:03;99151.06;;;12.67;34.16
64336;BME280;50672;53.362;-6.240;2023-03-08T13:16:38;99144.88;;;12.59;33.64
64336;BME280;50672;53.362;-6.240;2023-03-08T13:29:52;99141.91;;;11.48;33.11
64336;BME280;50672;53.362;-6.240;2023-03-08T13:32:22;99139.81;;;11.50;33.53
64336;BME280;50672;53.362;-6.240;2023-03-08T13:35:00;99136.97;;;11.63;33.48
64336;BME280;50672;53.362;-6.240;2023-03-08T13:37:29;99136.75;;;11.90;33.70
64336;BME280;50672;53.362;-6.240;2023-03-08T13:39:57;99125.91;;;12.09;33.47
64336;BME280;50672;53.362;-6.240;2023-03-08T13:42:26;99128.47;;;12.22;33.44
64336;BME280;50672;53.362;-6.240;2023-03-08T13:45:07;99138.09;;;12.25;32.98
64336;BME280;50672;53.362;-6.240;2023-03-08T13:47:37;99136.50;;;12.54;33.03
64336;BME280;50672;53.362;-6.240;2023-03-08T13:50:05;99140.09;;;13.04;32.98
64336;BME280;50672;53.362;-6.240;2023-03-08T13:52:35;99121.66;;;12.99;32.43
64336;BME280;50672;53.362;-6.240;2023-03-08T13:55:06;99131.16;;;13.81;32.50
64336;BME280;50672;53.362;-6.240;2023-03-08T13:57:36;99130.66;;;14.43;31.86
64336;BME280;50672;53.362;-6.240;2023-03-08T14:02:52;99123.75;;;14.93;30.86
64336;BME280;50672;53.362;-6.240;2023-03-08T14:05:22;99129.88;;;14.83;30.63
64336;BME280;50672;53.362;-6.240;2023-03-08T14:08:17;99112.88;;;14.98;30.50
64336;BME280;50672;53.362;-6.240;2023-03-08T14:10:49;99112.28;;;14.67;30.49
64336;BME280;50672;53.362;-6.240;2023-03-08T14:13:26;99111.50;;;14.31;30.41
64336;BME280;50672;53.362;-6.240;2023-03-08T14:15:59;99115.22;;;13.78;30.04
64336;BME280;50672;53.362;-6.240;2023-03-08T14:18:34;99110.59;;;13.24;30.37
64336;BME280;50672;53.362;-6.240;2023-03-08T14:21:06;99104.75;;;13.21;30.63
64336;BME280;50672;53.362;-6.240;2023-03-08T14:23:40;99105.19;;;13.36;30.74
64336;BME280;50672;53.362;-6.240;2023-03-08T14:26:28;99107.59;;;13.80;30.79
64336;BME280;50672;53.362;-6.240;2023-03-08T14:29:22;99113.81;;;14.11;30.71
64336;BME280;50672;53.362;-6.240;2023-03-08T14:34:28;99099.22;;;14.46;30.20
64336;BME280;50672;53.362;-6.240;2023-03-08T14:37:06;99110.47;;;14.73;30.10